Time;durP1;ratioP1;P1;durP2;ratioP2;P2;SDS_P1;SDS_P2;PMS_P1;PMS_P2;Temp;Humidity;BMP_temperature;BMP_pressure;BME280_temperature;BME280_humidity;BME280_pressure;Samples;Min_cycle;Max_cycle;Signal;HPM_P1;HPM_P2
2023/09/22 00:03:17;;;;;;;12.02;7.60;;;13.10;99.90;;;;;;25629137;23;20008;-62
2023/09/22 00:13:18;;;;;;;18.92;8.68;;;13.10;99.90;;;;;;25586558;23;20062;-62
2023/09/22 00:23:21;;;;;;;12.27;7.07;;;13.10;99.90;;;;;;25586275;23;20325;-62
2023/09/22 00:33:23;;;;;;;14.05;9.90;;;13.10;99.90;;;;;;25586298;23;20009;-62
2023/09/22 00:43:25;;;;;;;15.55;10.63;;;13.10;99.90;;;;;;25585877;23;20040;-63
2023/09/22 00:53:31;;;;;;;19.42;11.63;;;13.10;99.90;;;;;;25559471;23;20009;-63
2023/09/22 01:03:33;;;;;;;18.33;12.38;;;13.10;99.90;;;;;;25606391;23;20032;-61
2023/09/22 01:13:35;;;;;;;149.45;19.67;;;13.20;99.90;;;;;;25567620;23;20009;-60
2023/09/22 01:23:37;;;;;;;63.03;12.32;;;13.20;99.90;;;;;;25592137;23;20411;-60
2023/09/22 01:33:40;;;;;;;601.58;24.40;;;13.10;99.90;;;;;;25591740;23;20024;-60
2023/09/22 01:43:41;;;;;;;500.95;19.50;;;13.10;99.90;;;;;;25591580;23;20071;-61
2023/09/22 01:53:44;;;;;;;11.75;7.93;;;13.10;99.90;;;;;;25565010;23;20008;-60
2023/09/22 02:03:46;;;;;;;8.23;5.65;;;12.90;99.90;;;;;;25590895;23;20051;-60
2023/09/22 02:13:48;;;;;;;9.07;4.72;;;12.70;99.90;;;;;;25589826;23;20032;-60
2023/09/22 02:23:53;;;;;;;9.35;4.65;;;12.50;99.90;;;;;;25589896;23;20005;-59
2023/09/22 02:33:55;;;;;;;11.90;3.88;;;12.30;99.90;;;;;;25589211;23;20499;-59
2023/09/22 02:43:58;;;;;;;11.38;4.78;;;12.10;99.90;;;;;;25589045;23;20492;-58
2023/09/22 02:54:00;;;;;;;8.80;4.68;;;11.90;99.90;;;;;;25562199;23;20008;-48
2023/09/22 03:04:03;;;;;;;8.93;5.53;;;11.80;99.90;;;;;;25588292;23;20004;-51
2023/09/22 03:14:05;;;;;;;10.80;4.97;;;11.80;99.90;;;;;;25586424;23;20002;-48
2023/09/22 03:24:08;;;;;;;9.93;5.28;;;11.80;99.90;;;;;;25560842;23;20425;-49
2023/09/22 03:34:10;;;;;;;6.65;3.00;;;11.80;99.90;;;;;;25560120;23;20336;-59
2023/09/22 03:44:12;;;;;;;9.13;4.45;;;11.90;99.90;;;;;;25559833;23;20001;-52
2023/09/22 03:54:14;;;;;;;8.20;4.00;;;12.00;99.90;;;;;;25585992;23;20001;-51
2023/09/22 04:04:16;;;;;;;8.85;4.53;;;11.90;99.90;;;;;;25585954;23;20487;-59
2023/09/22 04:14:20;;;;;;;9.95;4.60;;;11.90;99.90;;;;;;25559361;23;20012;-52
2023/09/22 04:24:22;;;;;;;9.30;4.70;;;11.90;99.90;;;;;;25585302;23;20017;-58
2023/09/22 04:34:24;;;;;;;8.25;4.97;;;11.70;99.90;;;;;;25588213;23;20013;-51
2023/09/22 04:44:27;;;;;;;8.35;4.30;;;11.80;99.90;;;;;;25592862;23;20009;-49
2023/09/22 04:54:29;;;;;;;10.48;5.50;;;11.80;99.90;;;;;;25592664;23;20384;-59
2023/09/22 05:04:31;;;;;;;8.57;4.22;;;11.70;99.90;;;;;;25592727;23;20001;-59
2023/09/22 05:14:33;;;;;;;5.90;3.40;;;11.70;99.90;;;;;;25592248;23;20012;-48
2023/09/22 05:24:35;;;;;;;7.30;4.10;;;11.80;99.90;;;;;;25591860;23;20051;-52
2023/09/22 05:34:39;;;;;;;5.22;3.53;;;11.80;99.90;;;;;;25591231;23;20542;-59
2023/09/22 05:44:43;;;;;;;5.30;4.00;;;11.80;99.90;;;;;;25588633;23;20024;-60
2023/09/22 05:54:47;;;;;;;12.18;4.28;;;11.70;99.90;;;;;;25590429;23;20444;-50
2023/09/22 06:04:48;;;;;;;8.48;4.93;;;11.80;99.90;;;;;;25590114;23;20005;-50
2023/09/22 06:14:50;;;;;;;4.80;3.50;;;11.80;99.90;;;;;;25563019;23;20075;-49
2023/09/22 06:24:52;;;;;;;7.70;2.92;;;11.80;99.90;;;;;;25589275;23;20013;-48
2023/09/22 06:34:55;;;;;;;2.90;1.42;;;11.70;99.90;;;;;;25588890;23;20013;-48
2023/09/22 06:44:57;;;;;;;6.75;3.03;;;11.70;99.90;;;;;;25588371;23;20019;-53
2023/09/22 06:55:03;;;;;;;8.77;4.60;;;11.70;99.90;;;;;;25587843;23;20071;-49
2023/09/22 07:05:06;;;;;;;13.75;4.30;;;11.90;99.90;;;;;;25561669;23;20001;-59
2023/09/22 07:15:12;;;;;;;9.95;4.50;;;11.90;99.90;;;;;;25587034;23;20005;-53
2023/09/22 07:25:14;;;;;;;10.93;4.65;;;11.90;99.90;;;;;;25587061;23;20036;-60
2023/09/22 07:35:16;;;;;;;5.32;4.05;;;11.90;99.90;;;;;;25586856;23;20013;-60
2023/09/22 07:45:17;;;;;;;6.47;3.88;;;12.00;99.90;;;;;;25586157;23;20518;-54
2023/09/22 07:55:19;;;;;;;11.95;5.22;;;12.00;99.90;;;;;;25584964;23;20013;-60
2023/09/22 08:05:21;;;;;;;10.55;5.20;;;12.10;99.90;;;;;;25585850;23;20005;-50
2023/09/22 08:15:23;;;;;;;8.50;5.68;;;12.20;99.90;;;;;;25593857;23;20001;-60
2023/09/22 08:25:25;;;;;;;15.10;7.20;;;12.30;99.90;;;;;;25593844;23;20001;-60
2023/09/22 08:35:26;;;;;;;12.07;6.63;;;12.30;99.90;;;;;;25600086;23;20388;-51
2023/09/22 08:45:29;;;;;;;11.25;7.00;;;12.40;99.90;;;;;;25593110;23;20079;-50
2023/09/22 08:55:30;;;;;;;13.82;7.18;;;12.40;99.90;;;;;;25592511;23;20009;-49
2023/09/22 09:05:33;;;;;;;13.80;8.82;;;12.50;99.90;;;;;;25592223;23;20079;-50
2023/09/22 09:15:46;;;;;;;211.52;14.05;;;12.60;99.90;;;;;;25565249;23;20082;-49
2023/09/22 09:25:55;;;;;;;13.05;7.57;;;12.60;99.90;;;;;;25540288;23;20021;-50
2023/09/22 09:35:57;;;;;;;665.80;34.33;;;12.60;99.90;;;;;;25595690;23;20009;-60
2023/09/22 09:45:59;;;;;;;36.22;9.82;;;12.70;99.90;;;;;;25590893;23;20433;-61
2023/09/22 09:56:03;;;;;;;172.73;14.05;;;12.70;99.90;;;;;;25590259;23;20012;-52
2023/09/22 10:06:08;;;;;;;260.25;13.10;;;12.70;99.90;;;;;;25589885;23;20009;-50
2023/09/22 10:16:11;;;;;;;158.95;12.25;;;12.70;99.90;;;;;;25630711;23;20389;-61
2023/09/22 10:26:19;;;;;;;155.35;13.13;;;12.70;99.90;;;;;;25589547;23;20005;-60
2023/09/22 10:37:06;;;;;;;180.55;8.63;;;12.70;99.90;;;;;;25591650;23;20012;-52
2023/09/22 10:47:08;;;;;;;217.98;12.07;;;12.60;99.90;;;;;;25092185;23;20078;-61
2023/09/22 10:57:27;;;;;;;7.82;5.85;;;12.60;99.90;;;;;;25090704;23;20018;-60
2023/09/22 11:07:32;;;;;;;8.60;5.97;;;12.60;99.90;;;;;;25097764;23;20015;-55
2023/09/22 11:17:42;;;;;;;7.05;4.38;;;12.60;99.90;;;;;;25360565;23;20009;-61
2023/09/22 11:27:50;;;;;;;7.17;3.30;;;12.60;99.90;;;;;;25625269;23;20417;-50
2023/09/22 11:37:51;;;;;;;8.77;4.63;;;12.40;99.90;;;;;;25627529;23;20075;-48
2023/09/22 11:48:04;;;;;;;9.48;5.25;;;12.30;99.90;;;;;;25586485;23;20001;-61
2023/09/22 11:58:06;;;;;;;11.38;5.32;;;12.40;99.90;;;;;;25627139;23;20032;-51
2023/09/22 12:08:08;;;;;;;10.30;5.75;;;12.40;99.90;;;;;;25559785;23;20012;-49
2023/09/22 12:18:10;;;;;;;11.07;6.85;;;12.50;99.90;;;;;;25585991;23;20005;-50
2023/09/22 12:28:12;;;;;;;13.10;7.63;;;12.60;99.90;;;;;;25585729;23;20087;-54
2023/09/22 12:38:14;;;;;;;11.43;7.15;;;12.60;99.90;;;;;;25586671;23;20013;-52
2023/09/22 12:48:16;;;;;;;10.05;6.40;;;12.70;99.90;;;;;;25586743;23;20001;-50
2023/09/22 12:58:17;;;;;;;12.90;6.97;;;12.80;99.90;;;;;;25591617;23;20067;-54
2023/09/22 13:08:21;;;;;;;11.02;6.60;;;12.90;99.90;;;;;;25592471;23;20448;-54
2023/09/22 13:18:23;;;;;;;18.15;7.85;;;12.90;99.90;;;;;;25591784;23;20079;-61
2023/09/22 13:28:25;;;;;;;13.82;6.95;;;12.90;99.90;;;;;;25591520;23;20015;-60
2023/09/22 13:38:27;;;;;;;15.45;9.60;;;12.90;99.90;;;;;;25590947;23;20041;-61
2023/09/22 13:48:30;;;;;;;140.02;19.27;;;12.90;99.90;;;;;;25590964;23;20005;-49
2023/09/22 13:58:32;;;;;;;520.92;26.58;;;13.20;99.90;;;;;;25592932;23;20001;-61
2023/09/22 14:08:34;;;;;;;748.38;47.65;;;13.20;99.90;;;;;;25592171;23;20024;-61
2023/09/22 14:18:37;;;;;;;469.92;30.08;;;13.30;99.90;;;;;;25592206;23;20028;-63
2023/09/22 14:28:39;;;;;;;406.55;27.75;;;13.40;99.90;;;;;;25590987;23;20009;-63
2023/09/22 14:38:40;;;;;;;89.35;17.40;;;13.50;99.90;;;;;;25591428;23;20009;-53
2023/09/22 14:48:43;;;;;;;649.83;35.13;;;13.50;99.90;;;;;;25591383;23;20005;-62
2023/09/22 14:58:45;;;;;;;22.92;12.00;;;13.50;99.90;;;;;;25590941;23;20310;-54
2023/09/22 15:08:47;;;;;;;15.68;9.50;;;13.60;99.90;;;;;;25590348;23;20001;-55
2023/09/22 15:18:49;;;;;;;15.75;9.07;;;13.50;99.90;;;;;;25563142;23;20013;-64
2023/09/22 15:28:50;;;;;;;16.58;10.23;;;13.50;99.90;;;;;;25589530;23;20401;-64
2023/09/22 15:38:52;;;;;;;12.70;8.90;;;13.60;99.90;;;;;;25589531;23;20031;-53
2023/09/22 15:48:56;;;;;;;13.30;7.68;;;13.70;99.90;;;;;;25588153;23;20025;-65
2023/09/22 15:58:58;;;;;;;22.58;10.18;;;13.80;99.90;;;;;;25588784;23;20009;-55
2023/09/22 16:09:00;;;;;;;19.27;10.35;;;13.80;99.90;;;;;;25588162;23;20016;-55
2023/09/22 16:19:03;;;;;;;19.13;11.23;;;13.80;99.90;;;;;;25588511;23;20009;-64
2023/09/22 16:29:09;;;;;;;30.38;12.82;;;13.70;99.90;;;;;;25613438;23;20024;-54
2023/09/22 16:39:11;;;;;;;23.70;11.00;;;13.70;99.90;;;;;;25596813;23;20013;-55
2023/09/22 16:49:13;;;;;;;14.32;9.38;;;13.70;99.90;;;;;;25596895;23;20005;-64
2023/09/22 16:59:15;;;;;;;11.85;5.63;;;13.60;99.90;;;;;;25596461;23;20055;-64
2023/09/22 17:09:17;;;;;;;10.52;5.10;;;13.50;99.90;;;;;;25596170;23;20008;-64
2023/09/22 17:19:20;;;;;;;8.63;4.13;;;13.40;99.90;;;;;;25595692;23;20326;-64
2023/09/22 17:29:23;;;;;;;6.93;4.78;;;13.20;99.90;;;;;;25595781;23;20490;-63
2023/09/22 17:39:24;;;;;;;8.02;4.70;;;13.00;99.90;;;;;;25594559;23;20005;-64
2023/09/22 17:49:28;;;;;;;10.82;8.20;;;12.80;99.90;;;;;;25594585;23;20009;-64
2023/09/22 17:59:31;;;;;;;15.45;8.65;;;12.50;99.90;;;;;;25593648;23;20511;-63
2023/09/22 18:09:33;;;;;;;11.38;6.45;;;12.50;99.90;;;;;;25593353;23;20429;-63
2023/09/22 18:19:36;;;;;;;6.13;4.28;;;12.40;99.90;;;;;;25593060;23;20016;-63
2023/09/22 18:29:40;;;;;;;7.15;3.20;;;12.10;99.90;;;;;;25592402;23;20021;-53
2023/09/22 18:39:42;;;;;;;3.53;1.90;;;11.80;99.90;;;;;;25592054;23;20005;-54
2023/09/22 18:49:47;;;;;;;3.55;1.10;;;11.50;99.90;;;;;;25591714;23;20328;-63
2023/09/22 18:59:49;;;;;;;3.72;1.27;;;11.40;99.90;;;;;;25591253;23;20155;-55
2023/09/22 19:09:52;;;;;;;4.22;1.63;;;11.30;99.90;;;;;;25589092;23;20005;-63
2023/09/22 19:19:56;;;;;;;4.78;1.67;;;11.40;99.90;;;;;;25590538;23;20071;-64
2023/09/22 19:29:57;;;;;;;4.40;1.83;;;11.50;99.90;;;;;;25588713;23;20297;-64
2023/09/22 19:39:59;;;;;;;3.95;1.35;;;11.50;99.90;;;;;;25589871;23;20198;-64
2023/09/22 19:50:02;;;;;;;6.90;2.17;;;11.40;99.90;;;;;;25589527;23;20056;-58
2023/09/22 20:00:06;;;;;;;6.30;3.78;;;11.20;99.90;;;;;;25589286;23;20001;-64
2023/09/22 20:10:10;;;;;;;11.75;5.32;;;11.10;99.90;;;;;;25588232;23;20060;-56
2023/09/22 20:20:12;;;;;;;14.95;7.78;;;11.40;99.90;;;;;;25562520;23;20012;-57
2023/09/22 20:30:15;;;;;;;16.77;8.68;;;11.70;99.90;;;;;;25589410;23;20009;-64
2023/09/22 20:40:16;;;;;;;7.68;4.82;;;11.70;99.90;;;;;;25588722;23;20009;-56
2023/09/22 20:50:18;;;;;;;6.15;2.72;;;11.50;99.90;;;;;;25588790;23;20009;-64
2023/09/22 21:00:23;;;;;;;5.00;1.60;;;11.20;99.90;;;;;;25588477;23;20005;-56
2023/09/22 21:10:25;;;;;;;4.85;1.10;;;10.90;99.90;;;;;;25561857;23;20005;-56
2023/09/22 21:20:28;;;;;;;2.97;1.10;;;10.90;99.90;;;;;;25567407;23;20005;-64
2023/09/22 21:30:29;;;;;;;3.45;1.00;;;10.80;99.90;;;;;;25591424;23;20021;-60
2023/09/22 21:40:32;;;;;;;2.90;0.73;;;10.70;99.90;;;;;;25568054;23;20083;-55
2023/09/22 21:50:35;;;;;;;3.88;0.70;;;10.40;99.90;;;;;;25592589;23;20373;-55
2023/09/22 22:00:37;;;;;;;3.55;0.85;;;10.30;99.90;;;;;;25593748;23;20005;-63
2023/09/22 22:10:39;;;;;;;2.00;0.60;;;10.10;99.90;;;;;;25593361;23;20008;-55
2023/09/22 22:20:41;;;;;;;3.38;0.70;;;10.30;99.90;;;;;;25592981;23;20009;-63
2023/09/22 22:30:43;;;;;;;2.00;0.90;;;10.20;99.90;;;;;;25592055;23;20340;-59
2023/09/22 22:40:45;;;;;;;4.45;0.70;;;9.80;99.90;;;;;;25592291;23;20009;-56
2023/09/22 22:50:47;;;;;;;3.95;0.70;;;9.70;99.90;;;;;;25592073;23;20016;-62
2023/09/22 23:00:54;;;;;;;3.88;1.20;;;9.60;99.90;;;;;;25592889;23;20005;-56
2023/09/22 23:10:55;;;;;;;4.53;1.00;;;9.50;99.90;;;;;;25632376;23;20005;-54
2023/09/22 23:20:57;;;;;;;2.05;0.80;;;9.40;99.90;;;;;;25591114;23;20344;-55
2023/09/22 23:30:59;;;;;;;2.10;0.73;;;9.30;99.90;;;;;;25590382;23;20017;-62
2023/09/22 23:41:06;;;;;;;2.95;1.02;;;9.10;99.90;;;;;;25589958;23;20012;-56
2023/09/22 23:51:08;;;;;;;1.65;0.95;;;9.10;99.90;;;;;;25630972;23;20005;-55
